»·PEaware :: N24W KCPR-KDEN

N24W :: KCPR-KDEN

FLIGHT INFORMATION

Flight Status: Arrived
Operator: Privately registered:
United States
More flights under this callsign
Pilot: Mark R. (11809)
Aircraft: CESSNA 550 CITATION 2/S2/BRAVO
(C550)
More flights by this aircraft type
Origin: KCPR Natrona Co Intl
United States
Destination: KDEN Denver Intl
United States
More flights between these airports :: More routes between these airports
Route: +DDY OPPEE MOLTN3
File this flight plan on PilotEdge
Remarks:
Altitude:
(Current/Filed)
19,000ft
Speed:
(Current/Filed)
330kts
Departed: 26-Apr-18 02:48 PM
Arrived: 26-Apr-18 03:36 PM
Distance/Time
Traveled:
201nm/0:48
Distance/Time
To Go:
Arrived

Flight Plot

Page will automatically refresh every two minutes.

Flight plan parsing failed; only flown route is shown


Map Options




Map Legend


Flown Route
Filed Route
Departure Airport
Arrival Airport
Navaid (VOR, NDB)
Fix

Horizontal Profiles

Position Reports

Time Latitude Longitude Heading Altitude Ground
Speed
26-Apr-18 14:19 42.904408 -106.456718 38 5334ft 0kts
26-Apr-18 14:20 42.904408 -106.456718 38 5334ft 0kts
26-Apr-18 14:21 42.904408 -106.456718 38 5334ft 0kts
26-Apr-18 14:22 42.904408 -106.456718 38 5334ft 0kts
26-Apr-18 14:23 42.904408 -106.456718 38 5334ft 0kts
26-Apr-18 14:24 42.904408 -106.456718 38 5334ft 0kts
26-Apr-18 14:25 42.904408 -106.456718 38 5334ft 0kts
26-Apr-18 14:26 42.904408 -106.456718 38 5334ft 0kts
26-Apr-18 14:27 42.904408 -106.456718 38 5334ft 0kts
26-Apr-18 14:28 42.904408 -106.456718 38 5334ft 0kts
26-Apr-18 14:29 42.904408 -106.456718 38 5334ft 0kts
26-Apr-18 14:30 42.904408 -106.456718 38 5334ft 0kts
26-Apr-18 14:31 42.904408 -106.456718 38 5334ft 0kts
26-Apr-18 14:32 42.904408 -106.456718 38 5334ft 0kts
26-Apr-18 14:33 42.904408 -106.456718 38 5334ft 0kts
26-Apr-18 14:34 42.904408 -106.456718 38 5334ft 0kts
26-Apr-18 14:35 42.904408 -106.456718 38 5334ft 0kts
26-Apr-18 14:36 42.904474 -106.456654 33 5334ft 2kts
26-Apr-18 14:37 42.905733 -106.455760 29 5331ft 6kts
26-Apr-18 14:38 42.907107 -106.454463 42 5329ft 6kts
26-Apr-18 14:39 42.907163 -106.454391 44 5329ft 0kts
26-Apr-18 14:40 42.907163 -106.454391 44 5329ft 0kts
26-Apr-18 14:41 42.907163 -106.454391 44 5329ft 0kts
26-Apr-18 14:42 42.907163 -106.454391 44 5329ft 0kts
26-Apr-18 14:43 42.907163 -106.454391 44 5329ft 0kts
26-Apr-18 14:44 42.907163 -106.454391 44 5329ft 0kts
26-Apr-18 14:45 42.907163 -106.454391 44 5329ft 0kts
26-Apr-18 14:46 42.908381 -106.452796 43 5326ft 9kts
26-Apr-18 14:47 42.908753 -106.465102 270 5389ft 117kts
26-Apr-18 14:48 42.902213 -106.517425 256 7366ft 155kts
26-Apr-18 14:49 42.889770 -106.577579 241 9498ft 182kts
26-Apr-18 14:50 42.839351 -106.578263 170 11598ft 207kts
26-Apr-18 14:51 42.779469 -106.563759 170 13497ft 235kts
26-Apr-18 14:52 42.711532 -106.547007 170 15234ft 260kts
26-Apr-18 14:53 42.637387 -106.528767 170 16806ft 286kts
26-Apr-18 14:54 42.556674 -106.508967 170 18328ft 302kts
26-Apr-18 14:55 42.486772 -106.491863 170 19331ft 318kts
26-Apr-18 14:56 42.378238 -106.465335 169 19352ft 350kts
26-Apr-18 14:57 42.283154 -106.442134 169 19349ft 354kts
26-Apr-18 14:58 42.186630 -106.418782 170 19349ft 350kts
26-Apr-18 14:59 42.091570 -106.395867 170 19349ft 348kts
26-Apr-18 15:00 41.996789 -106.373049 169 19400ft 345kts
26-Apr-18 15:01 41.902692 -106.350453 169 19379ft 344kts
26-Apr-18 15:02 41.808316 -106.327857 169 19381ft 349kts
26-Apr-18 15:03 41.712266 -106.304929 169 19381ft 354kts
26-Apr-18 15:04 41.631256 -106.285646 169 19381ft 356kts
26-Apr-18 15:05 41.533855 -106.262529 169 19381ft 358kts
26-Apr-18 15:06 41.437556 -106.232930 164 19362ft 356kts
26-Apr-18 15:07 41.344174 -106.195238 159 19360ft 351kts
26-Apr-18 15:08 41.251595 -106.155641 162 19358ft 349kts
26-Apr-18 15:09 41.159605 -106.116199 161 19359ft 348kts
26-Apr-18 15:10 41.069768 -106.068455 157 19358ft 348kts
26-Apr-18 15:11 40.981084 -106.018451 155 19361ft 352kts
26-Apr-18 15:12 40.895786 -105.956321 135 19365ft 354kts
26-Apr-18 15:13 40.834378 -105.855604 128 19362ft 352kts
26-Apr-18 15:14 40.777484 -105.752890 123 19360ft 344kts
26-Apr-18 15:15 40.721358 -105.651563 124 19361ft 343kts
26-Apr-18 15:16 40.664954 -105.549640 124 19341ft 345kts
26-Apr-18 15:17 40.608703 -105.448275 127 19330ft 344kts
26-Apr-18 15:18 40.554682 -105.349701 125 19326ft 324kts
26-Apr-18 15:19 40.503027 -105.255857 125 19327ft 316kts
26-Apr-18 15:20 40.430552 -105.188978 142 18028ft 317kts
26-Apr-18 15:21 40.357666 -105.129025 145 16274ft 310kts
26-Apr-18 15:22 40.283804 -105.069857 145 15434ft 309kts
26-Apr-18 15:23 40.212308 -105.012577 147 14207ft 297kts
26-Apr-18 15:24 40.143105 -104.957120 148 13547ft 297kts
26-Apr-18 15:25 40.072560 -104.900740 148 13081ft 294kts
26-Apr-18 15:26 40.004231 -104.846276 147 13049ft 265kts
26-Apr-18 15:27 39.943196 -104.808959 174 12217ft 238kts
26-Apr-18 15:28 39.877684 -104.807197 183 11055ft 232kts
26-Apr-18 15:29 39.814051 -104.808178 183 9931ft 238kts
26-Apr-18 15:30 39.750464 -104.804939 151 8405ft 225kts
26-Apr-18 15:31 39.733311 -104.741837 71 7267ft 155kts
26-Apr-18 15:32 39.751171 -104.694811 49 7142ft 141kts
26-Apr-18 15:33 39.780100 -104.663672 16 6575ft 122kts
26-Apr-18 15:34 39.812799 -104.660832 0 5758ft 116kts
26-Apr-18 15:35 39.840517 -104.660402 2 5400ft 30kts
26-Apr-18 15:36 39.840224 -104.662875 249 5405ft 12kts
26-Apr-18 15:37 39.838012 -104.665377 353 5412ft 7kts

Navigation Log

Ident Type
Flight plan parsing failed, navigation log unavailable